Hammer Odde, Denmark
Current Conditions -  °F | °C
As of 1:20 PM on Sunday 23 Nov 2014 (Local Time) from EKRN Reporting Station
Broken Clouds Broken Clouds  
Wind Chill: 37°   Ceiling: 1400
Heat Index: 45°   Visibility: 5mi
Dew Point: 39°   Wind: 18mph
Humidity: 81%   Direction: 140°SE
Pressure: 30.3"   Gusts: NA
Location:  55.3°N, 14.78°E
Report Text: EKRN 231220Z AUTO 14016KT 8000NDV BKN014/// BKN049///BKN076/// 07/04 Q1026
Loading
Personal Weather Stations






























Interactive Weather Map New forecast layout! Learn more

10-Day Weather Forecast

Advertisements
Track Severe Weather on mobile